FDX441 RJFK-RJFU

Flight info

Callsign FDX441
Flight time 0h 18m
Altitude 12000
Route ATRUK1 SASIK KAZSA FUBKI
Aircraft B738/M-VGDW/C

Departure

Time 2026-04-26 18:44
Airport Kagoshima Airport (RJFK)

Arrival

Time 2026-04-26 19:02
Airport Nagasaki Airport (RJFU)
Time Latitude Longitude Altitude Speed Heading
2026-04-26 18:40 31.79534 130.72150 877 ft 0 kts 343°
2026-04-26 18:42 31.79547 130.72151 878 ft 12 kts 17°
2026-04-26 18:43 31.79499 130.72327 875 ft 29 kts 98°
2026-04-26 18:43 31.79628 130.72410 877 ft 24 kts 337°
2026-04-26 18:43 31.79985 130.72172 883 ft 108 kts 331°
2026-04-26 18:43 31.80870 130.71578 1130 ft 172 kts 330°
2026-04-26 18:44 31.81973 130.70836 2120 ft 190 kts 329°
2026-04-26 18:44 31.83198 130.70235 3055 ft 198 kts 344°
2026-04-26 18:44 31.84629 130.69795 3341 ft 228 kts 343°
2026-04-26 18:44 31.86220 130.69213 3893 ft 247 kts 341°
2026-04-26 18:45 31.87862 130.68569 4899 ft 250 kts 340°
2026-04-26 18:45 31.89540 130.67907 5839 ft 258 kts 340°
2026-04-26 18:45 31.91263 130.67228 6776 ft 264 kts 340°
2026-04-26 18:45 31.92989 130.66550 7735 ft 267 kts 339°
2026-04-26 18:46 31.94769 130.65853 8704 ft 271 kts 339°
2026-04-26 18:46 31.96578 130.65146 9632 ft 278 kts 339°
2026-04-26 18:46 31.98497 130.64394 10011 ft 305 kts 339°
2026-04-26 18:46 32.00335 130.63672 10202 ft 329 kts 339°
2026-04-26 18:47 32.02556 130.62805 10800 ft 341 kts 339°
2026-04-26 18:47 32.04824 130.61924 11542 ft 344 kts 339°
2026-04-26 18:47 32.07100 130.61040 11915 ft 347 kts 338°
2026-04-26 18:47 32.09430 130.60131 12006 ft 369 kts 339°
2026-04-26 18:48 32.11930 130.59153 12022 ft 388 kts 339°
2026-04-26 18:48 32.14516 130.58145 12017 ft 393 kts 339°
2026-04-26 18:48 32.17102 130.57140 12016 ft 387 kts 339°
2026-04-26 18:48 32.19677 130.56138 12004 ft 388 kts 339°
2026-04-26 18:49 32.21887 130.55278 11997 ft 376 kts 339°
2026-04-26 18:49 32.24253 130.54353 12003 ft 370 kts 339°
2026-04-26 18:49 32.26689 130.53399 11998 ft 370 kts 339°
2026-04-26 18:49 32.29095 130.52425 11999 ft 370 kts 335°
2026-04-26 18:50 32.31321 130.50947 11680 ft 365 kts 320°
2026-04-26 18:50 32.33250 130.49026 11381 ft 362 kts 317°
2026-04-26 18:50 32.35159 130.47081 10935 ft 361 kts 318°
2026-04-26 18:50 32.37052 130.45157 10512 ft 357 kts 318°
2026-04-26 18:51 32.38931 130.43259 10233 ft 351 kts 319°
2026-04-26 18:51 32.40796 130.41387 10091 ft 353 kts 319°
2026-04-26 18:51 32.42662 130.39521 9731 ft 358 kts 319°
2026-04-26 18:51 32.44544 130.37642 9302 ft 348 kts 319°
2026-04-26 18:52 32.46329 130.35862 8929 ft 321 kts 319°
2026-04-26 18:52 32.47967 130.34229 8548 ft 295 kts 320°
2026-04-26 18:52 32.49476 130.32723 8242 ft 274 kts 320°
2026-04-26 18:52 32.50913 130.31289 7931 ft 267 kts 320°
2026-04-26 18:53 32.52333 130.29869 7638 ft 268 kts 320°
2026-04-26 18:53 32.53757 130.28446 7342 ft 268 kts 320°
2026-04-26 18:53 32.54988 130.27215 7078 ft 267 kts 320°
2026-04-26 18:53 32.56404 130.25799 6777 ft 266 kts 320°
2026-04-26 18:54 32.57817 130.24386 6476 ft 265 kts 320°
2026-04-26 18:54 32.59233 130.22992 6177 ft 265 kts 322°
2026-04-26 18:54 32.60688 130.21657 5862 ft 263 kts 323°
2026-04-26 18:54 32.62141 130.20350 5558 ft 262 kts 323°
2026-04-26 18:55 32.63589 130.19048 5271 ft 260 kts 323°
2026-04-26 18:55 32.65029 130.17750 4974 ft 259 kts 323°
2026-04-26 18:55 32.66434 130.16478 4824 ft 256 kts 323°
2026-04-26 18:55 32.67854 130.15191 4729 ft 259 kts 323°
2026-04-26 18:56 32.69286 130.13890 4613 ft 258 kts 323°
2026-04-26 18:56 32.70708 130.12596 4512 ft 258 kts 323°
2026-04-26 18:56 32.72131 130.11301 4369 ft 258 kts 323°
2026-04-26 18:56 32.73541 130.10016 4136 ft 252 kts 323°
2026-04-26 18:57 32.74884 130.08792 3853 ft 235 kts 323°
2026-04-26 18:57 32.75721 130.08028 3686 ft 225 kts 323°
2026-04-26 18:57 32.77288 130.06599 3376 ft 211 kts 323°
2026-04-26 18:57 32.78405 130.05579 3137 ft 194 kts 323°
2026-04-26 18:58 32.79394 130.04567 2919 ft 182 kts 319°
2026-04-26 18:58 32.80295 130.03566 2733 ft 174 kts 319°
2026-04-26 18:58 32.81178 130.02583 2516 ft 175 kts 320°
2026-04-26 18:58 32.81989 130.01739 2331 ft 176 kts 320°
2026-04-26 18:59 32.82909 130.00771 2086 ft 177 kts 319°
2026-04-26 18:59 32.83712 129.99912 1886 ft 175 kts 319°
2026-04-26 18:59 32.84616 129.98942 1649 ft 173 kts 319°
2026-04-26 18:59 32.85483 129.98010 1420 ft 163 kts 319°
2026-04-26 19:00 32.86295 129.97138 1207 ft 155 kts 319°
2026-04-26 19:00 32.87068 129.96308 1026 ft 143 kts 319°
2026-04-26 19:00 32.87809 129.95513 828 ft 144 kts 319°
2026-04-26 19:00 32.88538 129.94730 626 ft 141 kts 319°
2026-04-26 19:01 32.89278 129.93935 431 ft 144 kts 319°
2026-04-26 19:01 32.90016 129.93144 247 ft 143 kts 319°
2026-04-26 19:01 32.90753 129.92357 84 ft 143 kts 319°
2026-04-26 19:01 32.91455 129.91601 20 ft 112 kts 318°
2026-04-26 19:02 32.91852 129.91177 17 ft 40 kts 318°
2026-04-26 19:02 32.92001 129.91141 15 ft 18 kts 40°
2026-04-26 19:02 32.91997 129.91288 13 ft 26 kts 135°
2026-04-26 19:02 32.91902 129.91396 12 ft 29 kts 137°
2026-04-26 19:03 32.91714 129.91601 14 ft 26 kts 138°
2026-04-26 19:03 32.91583 129.91740 17 ft 25 kts 138°
2026-04-26 19:03 32.91514 129.91909 16 ft 23 kts 89°
2026-04-26 19:03 32.91556 129.91978 17 ft 7 kts
2026-04-26 19:04 32.91569 129.91986 17 ft 0 kts 44°